createdAt,value
2019-04-01T00:00:52.920Z,99109.60
2019-04-01T00:01:57.549Z,99109.25
2019-04-01T00:03:01.025Z,99109.06
2019-04-01T00:04:02.929Z,99113.08
2019-04-01T00:05:05.889Z,99116.63
2019-04-01T00:06:08.505Z,99109.16
2019-04-01T00:07:10.461Z,99114.41
2019-04-01T00:08:12.805Z,99111.33
2019-04-01T00:09:14.463Z,99115.84
2019-04-01T00:10:16.665Z,99114.77
2019-04-01T00:11:19.195Z,99116.59
2019-04-01T00:12:20.889Z,99122.73
2019-04-01T00:13:23.237Z,99116.73
2019-04-01T00:14:25.398Z,99119.57
2019-04-01T00:15:27.266Z,99119.91
2019-04-01T00:16:29.476Z,99115.66
2019-04-01T00:17:32.809Z,99121.21
2019-04-01T00:18:35.167Z,99128.41
2019-04-01T00:19:37.309Z,99127.42
2019-04-01T00:20:39.653Z,99127.13
2019-04-01T00:21:44.556Z,99131.15
2019-04-01T00:22:46.249Z,99125.13
2019-04-01T00:23:48.554Z,99126.39
2019-04-01T00:24:50.453Z,99130.95
2019-04-01T00:25:52.554Z,99128.64
2019-04-01T00:26:54.839Z,99125.47
2019-04-01T00:27:56.681Z,99129.97
2019-04-01T00:28:58.920Z,99128.50
2019-04-01T00:30:01.162Z,99130.28
2019-04-01T00:31:03.144Z,99127.44
2019-04-01T00:32:05.383Z,99131.94
2019-04-01T00:33:07.042Z,99138.11
2019-04-01T00:34:08.818Z,99135.62
2019-04-01T00:35:11.142Z,99139.88
2019-04-01T00:36:13.548Z,99138.28
2019-04-01T00:37:15.984Z,99140.36
2019-04-01T00:38:18.254Z,99143.38
2019-04-01T00:39:20.371Z,99137.16
2019-04-01T00:40:22.490Z,99138.42
2019-04-01T00:41:24.921Z,99141.94
2019-04-01T00:42:29.146Z,99145.44
2019-04-01T00:43:50.057Z,99144.25
2019-04-01T00:44:52.407Z,99146.05
2019-04-01T00:45:56.326Z,99150.33
2019-04-01T00:46:58.563Z,99146.56
2019-04-01T00:48:01.536Z,99154.19
2019-04-01T00:49:03.351Z,99152.00
2019-04-01T00:50:06.578Z,99147.97
2019-04-01T00:51:09.158Z,99146.90
2019-04-01T00:52:11.517Z,99150.67
2019-04-01T00:53:13.620Z,99152.19
2019-04-01T00:54:15.813Z,99151.46
2019-04-01T00:55:18.066Z,99155.30
2019-04-01T00:56:20.272Z,99160.92
2019-04-01T00:57:22.167Z,99160.00
2019-04-01T00:58:24.439Z,99158.42
2019-04-01T00:59:27.739Z,99156.22
2019-04-01T01:00:30.398Z,99154.84
2019-04-01T01:01:32.439Z,99157.90
2019-04-01T01:02:34.990Z,99156.63
2019-04-01T01:03:36.983Z,99160.13
2019-04-01T01:04:40.331Z,99160.02
2019-04-01T01:05:42.309Z,99162.91
2019-04-01T01:06:44.519Z,99161.11
2019-04-01T01:07:46.976Z,99163.30
2019-04-01T01:08:49.097Z,99162.45
2019-04-01T01:09:51.428Z,99161.13
2019-04-01T01:10:53.528Z,99163.41
2019-04-01T01:11:55.953Z,99164.78
2019-04-01T01:12:58.244Z,99163.52
2019-04-01T01:14:00.351Z,99168.50
2019-04-01T01:15:06.103Z,99165.84
2019-04-01T01:16:08.209Z,99170.06
2019-04-01T01:17:10.320Z,99170.59
2019-04-01T01:18:12.446Z,99173.39
2019-04-01T01:19:14.216Z,99172.25
2019-04-01T01:20:16.630Z,99172.30
2019-04-01T01:21:18.801Z,99172.95
2019-04-01T01:22:20.984Z,99176.33
2019-04-01T01:23:23.352Z,99171.36
2019-04-01T01:24:25.368Z,99175.19
2019-04-01T01:25:27.527Z,99172.03
2019-04-01T01:26:29.808Z,99167.86
2019-04-01T01:27:31.876Z,99164.08
2019-04-01T01:28:33.934Z,99164.80
2019-04-01T01:29:36.139Z,99162.80
2019-04-01T01:30:38.998Z,99170.09
2019-04-01T01:31:41.112Z,99171.59
2019-04-01T01:32:43.278Z,99173.78
2019-04-01T01:33:45.544Z,99169.47
2019-04-01T01:34:48.104Z,99174.44
2019-04-01T01:35:50.299Z,99168.77
2019-04-01T01:36:52.524Z,99174.25
2019-04-01T01:37:54.760Z,99175.02
2019-04-01T01:38:56.803Z,99173.34
2019-04-01T01:39:58.830Z,99163.55
2019-04-01T01:41:01.135Z,99174.77
2019-04-01T01:42:03.279Z,99171.77
2019-04-01T01:43:05.341Z,99172.57
2019-04-01T01:44:07.405Z,99170.72
2019-04-01T01:45:10.058Z,99173.31
2019-04-01T01:46:12.087Z,99175.91
2019-04-01T01:47:15.411Z,99176.42
2019-04-01T01:48:17.922Z,99181.67
2019-04-01T01:49:20.097Z,99183.67
2019-04-01T01:50:22.191Z,99185.64
2019-04-01T01:51:24.765Z,99181.00
2019-04-01T01:52:26.850Z,99184.60
2019-04-01T01:53:29.016Z,99179.20
2019-04-01T01:54:31.037Z,99180.80
2019-04-01T01:55:32.844Z,99178.35
2019-04-01T01:56:35.030Z,99183.25
2019-04-01T01:57:37.419Z,99183.42
2019-04-01T01:58:39.521Z,99180.78
2019-04-01T01:59:41.660Z,99183.91
2019-04-01T02:00:44.164Z,99179.40
2019-04-01T02:01:48.637Z,99188.75
2019-04-01T02:02:51.065Z,99183.63
2019-04-01T02:03:53.242Z,99184.30
2019-04-01T02:04:55.687Z,99182.98
2019-04-01T02:05:57.885Z,99188.41
2019-04-01T02:07:00.103Z,99188.13
2019-04-01T02:08:02.595Z,99189.99
2019-04-01T02:09:05.132Z,99182.52
2019-04-01T02:10:07.152Z,99191.52
2019-04-01T02:11:09.503Z,99183.57
2019-04-01T02:12:11.980Z,99190.05
2019-04-01T02:13:14.144Z,99189.80
2019-04-01T02:14:16.104Z,99192.11
2019-04-01T02:15:17.811Z,99189.80
2019-04-01T02:16:19.806Z,99190.27
2019-04-01T02:17:21.984Z,99195.55
2019-04-01T02:18:23.881Z,99197.85
2019-04-01T02:19:26.230Z,99202.16
2019-04-01T02:20:28.338Z,99196.22
2019-04-01T02:21:30.292Z,99194.55
2019-04-01T02:22:32.709Z,99196.36
2019-04-01T02:23:34.778Z,99196.53
2019-04-01T02:24:36.851Z,99195.94
2019-04-01T02:25:38.595Z,99198.07
2019-04-01T02:26:40.663Z,99196.89
2019-04-01T02:27:42.652Z,99194.41
2019-04-01T02:28:44.539Z,99196.66
2019-04-01T02:29:46.984Z,99197.00
2019-04-01T02:30:48.878Z,99201.31
2019-04-01T02:31:51.083Z,99201.31
2019-04-01T02:32:53.391Z,99201.03
2019-04-01T02:33:55.208Z,99197.88
2019-04-01T02:34:57.357Z,99204.89
2019-04-01T02:35:59.753Z,99198.72
2019-04-01T02:37:01.536Z,99201.03
2019-04-01T02:38:03.653Z,99196.72
2019-04-01T02:39:08.042Z,99206.60
2019-04-01T02:40:10.085Z,99205.28
2019-04-01T02:41:12.473Z,99206.80
2019-04-01T02:42:14.646Z,99200.69
2019-04-01T02:43:16.738Z,99209.65
2019-04-01T02:44:18.780Z,99206.02
2019-04-01T02:45:20.583Z,99205.88
2019-04-01T02:46:22.678Z,99200.24
2019-04-01T02:47:24.790Z,99207.06
2019-04-01T02:48:26.970Z,99207.87
2019-04-01T02:49:31.229Z,99210.72
2019-04-01T02:50:33.437Z,99211.97
2019-04-01T02:51:35.533Z,99212.30
2019-04-01T02:52:37.826Z,99221.32
2019-04-01T02:53:39.905Z,99219.58
2019-04-01T02:54:41.604Z,99220.84
2019-04-01T02:55:43.897Z,99221.86
2019-04-01T02:56:46.164Z,99226.98
2019-04-01T02:57:47.920Z,99225.38
2019-04-01T02:58:50.413Z,99226.95
2019-04-01T02:59:52.869Z,99220.16
2019-04-01T03:00:54.738Z,99226.70
2019-04-01T03:01:56.742Z,99240.14
2019-04-01T03:02:59.123Z,99233.84
2019-04-01T03:04:01.588Z,99237.37
2019-04-01T03:05:06.211Z,99230.36
2019-04-01T03:06:08.354Z,99232.27
2019-04-01T03:07:10.336Z,99236.44
2019-04-01T03:08:12.868Z,99235.25
2019-04-01T03:09:14.540Z,99234.48
2019-04-01T03:10:16.411Z,99235.64
2019-04-01T03:11:18.817Z,99231.84
2019-04-01T03:12:21.121Z,99241.78
2019-04-01T03:13:23.004Z,99237.16
2019-04-01T03:14:25.173Z,99236.96
2019-04-01T03:15:27.309Z,99235.16
2019-04-01T03:16:29.368Z,99239.47
2019-04-01T03:17:31.542Z,99235.35
2019-04-01T03:18:34.784Z,99238.34
2019-04-01T03:19:40.388Z,99240.51
2019-04-01T03:20:42.631Z,99237.81
2019-04-01T03:21:44.385Z,99242.98
2019-04-01T03:22:46.471Z,99238.67
2019-04-01T03:23:48.701Z,99242.98
2019-04-01T03:24:50.547Z,99241.66
2019-04-01T03:25:53.178Z,99243.36
2019-04-01T03:26:56.475Z,99244.48
2019-04-01T03:27:58.435Z,99247.62
2019-04-01T03:29:00.946Z,99245.81
2019-04-01T03:30:04.591Z,99244.29
2019-04-01T03:31:07.047Z,99240.31
2019-04-01T03:32:09.067Z,99252.39
2019-04-01T03:33:11.635Z,99248.08
2019-04-01T03:34:15.413Z,99249.06
2019-04-01T03:35:17.913Z,99252.39
2019-04-01T03:36:20.504Z,99251.86
2019-04-01T03:37:22.773Z,99254.17
2019-04-01T03:38:27.788Z,99256.11
2019-04-01T03:39:28.865Z,99250.81
2019-04-01T03:40:31.285Z,99256.11
2019-04-01T03:41:33.641Z,99263.73
2019-04-01T03:42:36.469Z,99265.70
2019-04-01T03:43:39.086Z,99259.08
2019-04-01T03:44:41.171Z,99257.05
2019-04-01T03:45:43.055Z,99260.88
2019-04-01T03:46:45.117Z,99267.17
2019-04-01T03:47:47.466Z,99269.91
2019-04-01T03:48:49.634Z,99272.55
2019-04-01T03:49:51.777Z,99266.58
2019-04-01T03:50:54.305Z,99267.57
2019-04-01T03:51:56.545Z,99264.58
2019-04-01T03:52:58.705Z,99264.24
2019-04-01T03:54:00.728Z,99265.20
2019-04-01T03:55:04.453Z,99271.01
2019-04-01T03:56:06.532Z,99270.30
2019-04-01T03:57:08.787Z,99266.50
2019-04-01T03:58:10.862Z,99269.97
2019-04-01T03:59:15.112Z,99273.60
2019-04-01T04:00:17.270Z,99276.25
2019-04-01T04:01:18.982Z,99272.27
2019-04-01T04:02:21.508Z,99270.75
2019-04-01T04:03:23.699Z,99277.37
2019-04-01T04:04:25.933Z,99273.71
2019-04-01T04:05:28.275Z,99272.53
2019-04-01T04:06:30.737Z,99277.97
2019-04-01T04:07:32.953Z,99270.02
2019-04-01T04:08:35.402Z,99268.02
2019-04-01T04:09:37.544Z,99272.23
2019-04-01T04:10:39.662Z,99273.22
2019-04-01T04:11:42.137Z,99277.84
2019-04-01T04:12:44.428Z,99275.81
2019-04-01T04:13:46.557Z,99281.75
2019-04-01T04:14:51.099Z,99281.05
2019-04-01T04:15:53.284Z,99279.69
2019-04-01T04:16:55.784Z,99282.00
2019-04-01T04:17:58.765Z,99279.63
2019-04-01T04:19:01.250Z,99284.92
2019-04-01T04:20:04.063Z,99284.59
2019-04-01T04:21:06.219Z,99283.53
2019-04-01T04:22:08.205Z,99288.16
2019-04-01T04:23:10.430Z,99291.08
2019-04-01T04:24:12.539Z,99290.73
2019-04-01T04:25:16.360Z,99293.18
2019-04-01T04:26:18.512Z,99291.66
2019-04-01T04:27:20.713Z,99290.98
2019-04-01T04:28:23.023Z,99297.25
2019-04-01T04:29:26.258Z,99292.44
2019-04-01T04:30:27.947Z,99296.54
2019-04-01T04:31:30.209Z,99302.34
2019-04-01T04:32:32.452Z,99300.68
2019-04-01T04:33:34.771Z,99298.51
2019-04-01T04:34:37.510Z,99301.80
2019-04-01T04:35:40.277Z,99302.14
2019-04-01T04:36:42.536Z,99303.80
2019-04-01T04:37:44.725Z,99304.11
2019-04-01T04:38:47.227Z,99304.11
2019-04-01T04:39:49.853Z,99306.38
2019-04-01T04:40:53.596Z,99308.55
2019-04-01T04:41:56.215Z,99311.67
2019-04-01T04:42:58.422Z,99307.70
2019-04-01T04:44:00.915Z,99314.32
2019-04-01T04:45:05.678Z,99309.03
2019-04-01T04:46:07.571Z,99313.98
2019-04-01T04:47:09.564Z,99313.64
2019-04-01T04:48:11.587Z,99313.64
2019-04-01T04:49:13.584Z,99316.29
2019-04-01T04:50:15.807Z,99315.61
2019-04-01T04:51:17.865Z,99322.56
2019-04-01T04:52:19.996Z,99326.53
2019-04-01T04:53:22.377Z,99317.75
2019-04-01T04:54:25.205Z,99320.91
2019-04-01T04:55:27.610Z,99324.50
2019-04-01T04:56:29.949Z,99327.52
2019-04-01T04:57:31.903Z,99324.50
2019-04-01T04:58:34.178Z,99323.81
2019-04-01T04:59:36.648Z,99320.96
2019-04-01T05:00:38.806Z,99326.77
2019-04-01T05:01:41.230Z,99329.61
2019-04-01T05:02:43.880Z,99330.92
2019-04-01T05:03:47.147Z,99324.31
2019-04-01T05:04:49.312Z,99332.59
2019-04-01T05:05:51.872Z,99328.92
2019-04-01T05:06:53.907Z,99335.06
2019-04-01T05:07:56.287Z,99333.37
2019-04-01T05:08:58.483Z,99336.86
2019-04-01T05:10:00.388Z,99340.97
2019-04-01T05:11:02.751Z,99334.69
2019-04-01T05:12:04.828Z,99339.17
2019-04-01T05:13:06.864Z,99340.15
2019-04-01T05:14:09.104Z,99338.95
2019-04-01T05:15:11.573Z,99342.08
2019-04-01T05:16:13.405Z,99335.59
2019-04-01T05:17:15.806Z,99341.40
2019-04-01T05:18:18.231Z,99343.36
2019-04-01T05:19:20.187Z,99351.30
2019-04-01T05:20:22.547Z,99352.96
2019-04-01T05:21:26.026Z,99352.33
2019-04-01T05:22:28.812Z,99348.14
2019-04-01T05:23:32.965Z,99351.84
2019-04-01T05:24:36.006Z,99355.31
2019-04-01T05:25:38.650Z,99347.38
2019-04-01T05:26:43.096Z,99355.65
2019-04-01T05:27:47.008Z,99356.98
2019-04-01T05:28:50.236Z,99352.39
2019-04-01T05:29:53.633Z,99356.41
2019-04-01T05:30:58.277Z,99350.98
2019-04-01T05:32:02.150Z,99354.34
2019-04-01T05:33:04.429Z,99356.35
2019-04-01T05:34:08.587Z,99355.38
2019-04-01T05:35:11.883Z,99356.08
2019-04-01T05:36:14.755Z,99356.22
2019-04-01T05:37:17.753Z,99355.38
2019-04-01T05:38:20.267Z,99359.98
2019-04-01T05:39:22.756Z,99363.86
2019-04-01T05:40:25.061Z,99365.05
2019-04-01T05:41:27.372Z,99359.96
2019-04-01T05:42:29.310Z,99364.61
2019-04-01T05:43:33.005Z,99363.29
2019-04-01T05:44:36.099Z,99366.45
2019-04-01T05:45:37.856Z,99370.32
2019-04-01T05:46:39.796Z,99366.86
2019-04-01T05:47:44.897Z,99361.70
2019-04-01T05:48:46.763Z,99371.88
2019-04-01T05:49:48.905Z,99364.69
2019-04-01T05:50:52.779Z,99369.34
2019-04-01T05:51:54.799Z,99372.56
2019-04-01T05:52:57.137Z,99371.44
2019-04-01T05:53:59.218Z,99363.66
2019-04-01T05:55:01.398Z,99365.41
2019-04-01T05:56:03.651Z,99373.33
2019-04-01T05:57:06.046Z,99376.05
2019-04-01T05:58:09.111Z,99374.31
2019-04-01T05:59:11.539Z,99378.98
2019-04-01T06:00:20.847Z,99381.36
2019-04-01T06:01:24.832Z,99383.50
2019-04-01T06:02:27.559Z,99380.88
2019-04-01T06:03:29.534Z,99384.48
2019-04-01T06:04:31.830Z,99383.52
2019-04-01T06:05:34.010Z,99390.66
2019-04-01T06:06:36.634Z,99384.42
2019-04-01T06:07:38.630Z,99384.63
2019-04-01T06:08:41.270Z,99385.17
2019-04-01T06:09:43.529Z,99383.85
2019-04-01T06:10:46.388Z,99387.78
2019-04-01T06:11:49.194Z,99384.83
2019-04-01T06:12:51.432Z,99393.11
2019-04-01T06:13:54.474Z,99388.46
2019-04-01T06:14:56.918Z,99393.55
2019-04-01T06:15:59.738Z,99388.52
2019-04-01T06:17:02.389Z,99389.29
2019-04-01T06:18:04.344Z,99389.16
2019-04-01T06:19:06.542Z,99393.42
2019-04-01T06:20:10.558Z,99391.30
2019-04-01T06:21:12.736Z,99388.73
2019-04-01T06:22:15.257Z,99395.22
2019-04-01T06:23:17.331Z,99393.81
2019-04-01T06:24:20.553Z,99394.88
2019-04-01T06:25:22.955Z,99394.80
2019-04-01T06:26:25.128Z,99394.53
2019-04-01T06:27:28.002Z,99393.81
2019-04-01T06:28:31.633Z,99394.37
2019-04-01T06:29:33.894Z,99399.58
2019-04-01T06:30:35.565Z,99404.87
2019-04-01T06:31:37.270Z,99403.97
2019-04-01T06:32:39.525Z,99403.70
2019-04-01T06:33:41.830Z,99403.02
2019-04-01T06:34:52.609Z,99407.38
2019-04-01T06:35:48.537Z,99399.87
2019-04-01T06:36:50.725Z,99401.53
2019-04-01T06:37:53.201Z,99398.68
2019-04-01T06:38:55.319Z,99409.00
2019-04-01T06:39:58.484Z,99403.28
2019-04-01T06:41:01.074Z,99400.77
2019-04-01T06:42:03.175Z,99403.49
2019-04-01T06:43:05.290Z,99407.41
2019-04-01T06:44:08.788Z,99405.67
2019-04-01T06:45:11.981Z,99405.38
2019-04-01T06:46:14.236Z,99412.15
2019-04-01T06:47:17.237Z,99405.11
2019-04-01T06:48:19.408Z,99407.33
2019-04-01T06:49:21.386Z,99416.51
2019-04-01T06:50:23.666Z,99410.19
2019-04-01T06:51:26.169Z,99409.21
2019-04-01T06:52:28.644Z,99412.28
2019-04-01T06:53:30.923Z,99418.80
2019-04-01T06:54:34.778Z,99415.42
2019-04-01T06:55:37.089Z,99417.56
2019-04-01T06:56:39.306Z,99417.65
2019-04-01T06:57:41.384Z,99420.20
2019-04-01T06:58:46.137Z,99417.99
2019-04-01T06:59:50.172Z,99419.86
2019-04-01T07:00:52.918Z,99424.75
2019-04-01T07:01:55.320Z,99420.84
2019-04-01T07:02:57.428Z,99425.23
2019-04-01T07:03:59.794Z,99422.92
2019-04-01T07:05:03.632Z,99419.16
2019-04-01T07:06:05.932Z,99421.81
2019-04-01T07:07:18.897Z,99427.03
2019-04-01T07:08:13.719Z,99422.36
2019-04-01T07:09:17.345Z,99422.77
2019-04-01T07:10:19.579Z,99427.37
2019-04-01T07:11:22.467Z,99422.44
2019-04-01T07:12:25.138Z,99429.19
2019-04-01T07:13:29.309Z,99428.83
2019-04-01T07:14:33.442Z,99432.25
2019-04-01T07:15:35.805Z,99434.61
2019-04-01T07:16:40.072Z,99434.42
2019-04-01T07:17:42.666Z,99432.72
2019-04-01T07:18:44.874Z,99433.02
2019-04-01T07:19:47.053Z,99432.04
2019-04-01T07:20:49.613Z,99426.89
2019-04-01T07:21:54.337Z,99434.41
2019-04-01T07:22:56.167Z,99437.87
2019-04-01T07:23:58.564Z,99440.38
2019-04-01T07:25:00.629Z,99438.03
2019-04-01T07:26:03.594Z,99438.38
2019-04-01T07:27:08.033Z,99437.53
2019-04-01T07:28:10.089Z,99438.17
2019-04-01T07:29:12.611Z,99435.59
2019-04-01T07:30:15.255Z,99438.58
2019-04-01T07:31:17.274Z,99445.31
2019-04-01T07:32:20.867Z,99438.17
2019-04-01T07:33:22.807Z,99433.62
2019-04-01T07:34:24.976Z,99438.58
2019-04-01T07:35:27.165Z,99444.15
2019-04-01T07:36:29.504Z,99438.72
2019-04-01T07:37:31.906Z,99440.02
2019-04-01T07:38:33.941Z,99435.58
2019-04-01T07:39:37.745Z,99430.05
2019-04-01T07:40:39.823Z,99443.45
2019-04-01T07:41:41.869Z,99440.94
2019-04-01T07:42:44.059Z,99439.19
2019-04-01T07:43:46.255Z,99437.30
2019-04-01T07:44:48.436Z,99439.67
2019-04-01T07:45:50.559Z,99441.34
2019-04-01T07:46:52.750Z,99446.52
2019-04-01T07:47:55.076Z,99437.89
2019-04-01T07:48:56.948Z,99446.16
2019-04-01T07:49:59.010Z,99449.42
2019-04-01T07:51:01.531Z,99442.84
2019-04-01T07:52:03.606Z,99451.03
2019-04-01T07:53:06.020Z,99456.98
2019-04-01T07:54:08.385Z,99445.27
2019-04-01T07:55:10.779Z,99453.72
2019-04-01T07:56:12.918Z,99453.86
2019-04-01T07:57:15.059Z,99459.94
2019-04-01T07:58:17.545Z,99455.17
2019-04-01T07:59:20.213Z,99461.63
2019-04-01T08:00:22.545Z,99460.24
2019-04-01T08:01:24.715Z,99458.98
2019-04-01T08:02:26.831Z,99456.84
2019-04-01T08:03:29.309Z,99460.85
2019-04-01T08:04:31.507Z,99459.59
2019-04-01T08:05:34.589Z,99462.27
2019-04-01T08:06:37.460Z,99462.89
2019-04-01T08:07:39.553Z,99464.97
2019-04-01T08:08:46.111Z,99472.23
2019-04-01T08:09:47.498Z,99472.75
2019-04-01T08:10:50.011Z,99476.25
2019-04-01T08:11:52.525Z,99470.20
2019-04-01T08:12:54.510Z,99468.70
2019-04-01T08:13:56.651Z,99470.95
2019-04-01T08:14:58.653Z,99468.98
2019-04-01T08:16:00.765Z,99473.32
2019-04-01T08:17:03.313Z,99479.95
2019-04-01T08:18:06.578Z,99473.56
2019-04-01T08:19:08.857Z,99481.14
2019-04-01T08:20:12.797Z,99482.84
2019-04-01T08:21:14.991Z,99486.44
2019-04-01T08:22:17.206Z,99483.86
2019-04-01T08:23:19.513Z,99475.23
2019-04-01T08:24:21.911Z,99472.75
2019-04-01T08:25:24.207Z,99477.16
2019-04-01T08:26:26.932Z,99480.35
2019-04-01T08:27:28.941Z,99472.75
2019-04-01T08:28:31.942Z,99476.41
2019-04-01T08:29:34.392Z,99477.16
2019-04-01T08:30:36.919Z,99470.78
2019-04-01T08:31:39.337Z,99464.66
2019-04-01T08:32:41.602Z,99470.97
2019-04-01T08:33:43.738Z,99472.30
2019-04-01T08:34:46.158Z,99474.55
2019-04-01T08:35:48.630Z,99476.83
2019-04-01T08:36:51.078Z,99481.84
2019-04-01T08:37:53.023Z,99484.70
2019-04-01T08:38:55.691Z,99481.30
2019-04-01T08:39:57.880Z,99476.00
2019-04-01T08:41:00.783Z,99475.92
2019-04-01T08:42:03.138Z,99471.18
2019-04-01T08:43:05.367Z,99467.78
2019-04-01T08:44:07.684Z,99459.91
2019-04-01T08:45:10.478Z,99469.38
2019-04-01T08:46:12.162Z,99466.55
2019-04-01T08:47:15.381Z,99482.19
2019-04-01T08:48:17.250Z,99474.47
2019-04-01T08:49:19.431Z,99471.56
2019-04-01T08:50:21.800Z,99475.02
2019-04-01T08:51:23.974Z,99476.00
2019-04-01T08:52:26.015Z,99477.11
2019-04-01T08:53:28.676Z,99473.89
2019-04-01T08:54:31.135Z,99467.36
2019-04-01T08:55:33.489Z,99482.63
2019-04-01T08:56:38.060Z,99477.61
2019-04-01T08:57:40.327Z,99475.95
2019-04-01T08:58:42.863Z,99472.58
2019-04-01T08:59:45.456Z,99474.56
2019-04-01T09:00:47.385Z,99475.44
2019-04-01T09:01:49.961Z,99474.24
2019-04-01T09:02:52.669Z,99466.92
2019-04-01T09:03:54.557Z,99477.80
2019-04-01T09:04:56.726Z,99470.78
2019-04-01T09:05:59.195Z,99473.42
2019-04-01T09:07:01.804Z,99466.75
2019-04-01T09:08:04.277Z,99469.45
2019-04-01T09:09:07.083Z,99465.55
2019-04-01T09:10:10.091Z,99476.36
2019-04-01T09:11:12.577Z,99469.73
2019-04-01T09:12:15.002Z,99470.82
2019-04-01T09:13:17.745Z,99472.94
2019-04-01T09:14:21.569Z,99468.69
2019-04-01T09:15:24.497Z,99474.48
2019-04-01T09:16:26.641Z,99465.61
2019-04-01T09:17:28.823Z,99465.73
2019-04-01T09:18:31.043Z,99467.98
2019-04-01T09:19:33.386Z,99469.17
2019-04-01T09:20:35.363Z,99465.41
2019-04-01T09:21:38.619Z,99460.94
2019-04-01T09:22:40.278Z,99457.95
2019-04-01T09:23:42.261Z,99454.94
2019-04-01T09:24:43.985Z,99462.14
2019-04-01T09:25:46.215Z,99460.41
2019-04-01T09:26:48.532Z,99460.31
2019-04-01T09:27:50.714Z,99457.12
2019-04-01T09:28:52.939Z,99457.11
2019-04-01T09:29:54.945Z,99459.50
2019-04-01T09:30:57.449Z,99454.88
2019-04-01T09:31:59.782Z,99453.19
2019-04-01T09:33:02.171Z,99453.27
2019-04-01T09:34:04.183Z,99450.34
2019-04-01T09:35:07.063Z,99446.47
2019-04-01T09:36:09.505Z,99454.59
2019-04-01T09:37:11.940Z,99462.15
2019-04-01T09:38:15.392Z,99459.77
2019-04-01T09:39:17.540Z,99460.23
2019-04-01T09:40:19.727Z,99466.63
2019-04-01T09:41:22.792Z,99458.45
2019-04-01T09:42:24.745Z,99457.95
2019-04-01T09:43:26.824Z,99456.83
2019-04-01T09:44:36.817Z,99459.05
2019-04-01T09:45:32.886Z,99445.42
2019-04-01T09:46:35.298Z,99445.94
2019-04-01T09:47:37.450Z,99450.88
2019-04-01T09:48:39.256Z,99458.58
2019-04-01T09:49:41.281Z,99451.58
2019-04-01T09:50:43.994Z,99454.90
2019-04-01T09:51:49.033Z,99456.48
2019-04-01T09:52:51.703Z,99445.42
2019-04-01T09:53:53.961Z,99449.12
2019-04-01T09:54:55.716Z,99450.95
2019-04-01T09:55:58.047Z,99452.77
2019-04-01T09:57:00.136Z,99447.48
2019-04-01T09:58:01.996Z,99446.67
2019-04-01T09:59:04.227Z,99445.64
2019-04-01T10:00:09.697Z,99452.17
2019-04-01T10:01:11.782Z,99448.98
2019-04-01T10:02:14.179Z,99451.36
2019-04-01T10:03:16.083Z,99455.87
2019-04-01T10:04:18.441Z,99449.96
2019-04-01T10:05:20.689Z,99450.07
2019-04-01T10:06:22.872Z,99451.38
2019-04-01T10:07:24.821Z,99450.86
2019-04-01T10:08:44.705Z,99447.63
2019-04-01T10:09:31.643Z,99440.11
2019-04-01T10:10:33.919Z,99434.84
2019-04-01T10:11:36.287Z,99444.97
2019-04-01T10:12:38.559Z,99450.30
2019-04-01T10:13:41.933Z,99450.67
2019-04-01T10:14:44.202Z,99447.09
2019-04-01T10:15:46.169Z,99446.66
2019-04-01T10:16:48.529Z,99440.25
2019-04-01T10:17:50.565Z,99442.52
2019-04-01T10:18:52.423Z,99436.90
2019-04-01T10:19:55.123Z,99431.86
2019-04-01T10:20:57.242Z,99438.96
2019-04-01T10:21:59.195Z,99434.81
2019-04-01T10:23:01.614Z,99443.26
2019-04-01T10:24:04.163Z,99440.34
2019-04-01T10:25:06.518Z,99428.03
2019-04-01T10:26:08.787Z,99432.48
2019-04-01T10:27:10.932Z,99431.62
2019-04-01T10:28:13.281Z,99430.75
2019-04-01T10:29:15.502Z,99423.95
2019-04-01T10:30:18.066Z,99427.49
2019-04-01T10:31:19.729Z,99434.18
2019-04-01T10:32:22.144Z,99425.83
2019-04-01T10:33:24.568Z,99431.45
2019-04-01T10:34:26.824Z,99426.19
2019-04-01T10:35:29.283Z,99425.05
2019-04-01T10:36:31.518Z,99432.93
2019-04-01T10:37:34.218Z,99430.56
2019-04-01T10:38:37.832Z,99425.89
2019-04-01T10:39:39.724Z,99424.73
2019-04-01T10:40:42.292Z,99424.25
2019-04-01T10:41:44.821Z,99423.23
2019-04-01T10:42:47.152Z,99426.45
2019-04-01T10:43:49.549Z,99426.56
2019-04-01T10:44:51.516Z,99429.87
2019-04-01T10:45:53.513Z,99421.22
2019-04-01T10:46:56.011Z,99425.55
2019-04-01T10:47:58.499Z,99422.28
2019-04-01T10:49:00.399Z,99420.95
2019-04-01T10:50:05.928Z,99420.43
2019-04-01T10:51:08.363Z,99418.16
2019-04-01T10:52:10.645Z,99414.58
2019-04-01T10:53:12.993Z,99413.55
2019-04-01T10:54:15.336Z,99415.21
2019-04-01T10:55:18.750Z,99415.31
2019-04-01T10:56:21.288Z,99420.06
2019-04-01T10:57:24.769Z,99420.50
2019-04-01T10:58:27.343Z,99412.83
2019-04-01T10:59:31.099Z,99416.23
2019-04-01T11:00:33.530Z,99411.30
2019-04-01T11:01:35.855Z,99413.20
2019-04-01T11:02:38.224Z,99415.84
2019-04-01T11:03:40.777Z,99413.38
2019-04-01T11:04:43.311Z,99409.02
2019-04-01T11:05:45.769Z,99409.95
2019-04-01T11:06:47.965Z,99413.10
2019-04-01T11:07:50.296Z,99410.16
2019-04-01T11:08:52.748Z,99418.06
2019-04-01T11:09:56.208Z,99419.08
2019-04-01T11:10:58.623Z,99418.14
2019-04-01T11:12:00.801Z,99406.42
2019-04-01T11:13:02.614Z,99416.33
2019-04-01T11:14:06.279Z,99417.19
2019-04-01T11:15:10.356Z,99411.77
2019-04-01T11:16:12.725Z,99412.29
2019-04-01T11:17:15.409Z,99417.23
2019-04-01T11:18:17.849Z,99417.02
2019-04-01T11:19:20.379Z,99418.77
2019-04-01T11:20:22.824Z,99410.91
2019-04-01T11:21:25.063Z,99415.05
2019-04-01T11:22:29.461Z,99411.78
2019-04-01T11:23:31.899Z,99409.78
2019-04-01T11:24:33.814Z,99418.61
2019-04-01T11:25:35.632Z,99420.08
2019-04-01T11:26:38.225Z,99419.98
2019-04-01T11:27:40.768Z,99412.58
2019-04-01T11:28:42.560Z,99412.53
2019-04-01T11:29:44.958Z,99406.97
2019-04-01T11:30:47.321Z,99415.82
2019-04-01T11:31:49.954Z,99417.41
2019-04-01T11:32:52.076Z,99422.62
2019-04-01T11:33:53.920Z,99417.66
2019-04-01T11:34:56.437Z,99413.05
2019-04-01T11:35:58.632Z,99410.39
2019-04-01T11:37:00.641Z,99415.16
2019-04-01T11:38:03.177Z,99401.33
2019-04-01T11:39:05.997Z,99410.64
2019-04-01T11:40:11.453Z,99404.80
2019-04-01T11:41:13.247Z,99407.19
2019-04-01T11:42:15.516Z,99408.27
2019-04-01T11:43:17.592Z,99405.38
2019-04-01T11:44:19.770Z,99400.33
2019-04-01T11:45:22.540Z,99406.16
2019-04-01T11:46:26.172Z,99400.70
2019-04-01T11:47:28.506Z,99399.67
2019-04-01T11:48:30.788Z,99401.22
2019-04-01T11:49:33.040Z,99406.83
2019-04-01T11:50:35.419Z,99398.86
2019-04-01T11:51:40.056Z,99395.57
2019-04-01T11:52:41.822Z,99397.42
2019-04-01T11:53:44.153Z,99395.38
2019-04-01T11:54:46.358Z,99395.49
2019-04-01T11:55:48.731Z,99399.81
2019-04-01T11:56:51.100Z,99400.91
2019-04-01T11:57:53.358Z,99400.06
2019-04-01T11:58:56.894Z,99393.20
2019-04-01T11:59:59.973Z,99383.27
2019-04-01T12:01:01.995Z,99399.23
2019-04-01T12:02:04.456Z,99389.92
2019-04-01T12:03:06.683Z,99393.38
2019-04-01T12:04:08.884Z,99397.74
2019-04-01T12:05:11.571Z,99396.56
2019-04-01T12:06:14.013Z,99395.03
2019-04-01T12:07:17.168Z,99401.34
2019-04-01T12:08:19.488Z,99393.95
2019-04-01T12:09:21.836Z,99394.66
2019-04-01T12:10:23.688Z,99389.27
2019-04-01T12:11:25.922Z,99395.80
2019-04-01T12:12:28.032Z,99393.66
2019-04-01T12:13:30.208Z,99392.72
2019-04-01T12:14:32.164Z,99387.17